Time;durP1;ratioP1;P1;durP2;ratioP2;P2;SDS_P1;SDS_P2;PMS_P1;PMS_P2;Temp;Humidity;BMP_temperature;BMP_pressure;BME280_temperature;BME280_humidity;BME280_pressure;Samples;Min_cycle;Max_cycle;Signal;HPM_P1;HPM_P2
2023/03/07 00:00:21;;;;;;;15.93;10.20;;;4.20;21.90;;;;;;5027518;28;20463;-61
2023/03/07 00:02:50;;;;;;;19.50;10.67;;;4.20;21.80;;;;;;5030710;28;20455;-61
2023/03/07 00:05:17;;;;;;;21.50;11.40;;;4.20;21.80;;;;;;5042181;28;20468;-60
2023/03/07 00:07:44;;;;;;;20.93;11.87;;;4.20;21.80;;;;;;5028963;28;20483;-60
2023/03/07 00:10:11;;;;;;;17.20;9.80;;;4.20;22.00;;;;;;5041702;28;20455;-61
2023/03/07 00:12:39;;;;;;;18.53;10.87;;;4.20;22.00;;;;;;5036957;28;20470;-61
2023/03/07 00:15:08;;;;;;;19.57;12.10;;;4.20;22.00;;;;;;5036315;28;20466;-61
2023/03/07 00:17:36;;;;;;;17.00;10.50;;;4.20;22.20;;;;;;5030609;28;20522;-61
2023/03/07 00:20:05;;;;;;;18.83;11.07;;;4.20;22.40;;;;;;5027455;28;20508;-60
2023/03/07 00:22:32;;;;;;;16.10;10.60;;;4.20;22.40;;;;;;5021846;28;20510;-63
2023/03/07 00:24:59;;;;;;;18.97;10.60;;;4.10;22.40;;;;;;5028091;28;20463;-65
2023/03/07 00:27:25;;;;;;;19.20;10.83;;;4.10;22.40;;;;;;5029599;28;20491;-61
2023/03/07 00:29:53;;;;;;;21.77;10.40;;;4.10;22.40;;;;;;5041680;28;20970;-62
2023/03/07 00:32:20;;;;;;;16.37;9.70;;;4.10;22.40;;;;;;5023828;28;20478;-61
2023/03/07 00:34:47;;;;;;;20.30;11.90;;;4.10;22.40;;;;;;5023509;28;20463;-61
2023/03/07 00:37:14;;;;;;;18.60;11.07;;;4.10;22.40;;;;;;5023509;28;20821;-61
2023/03/07 00:39:41;;;;;;;20.63;11.67;;;4.10;22.40;;;;;;5024185;28;20971;-61
2023/03/07 00:42:08;;;;;;;20.50;11.00;;;4.10;22.30;;;;;;5024876;28;20459;-61
2023/03/07 00:44:35;;;;;;;19.03;11.57;;;4.10;22.30;;;;;;5021036;28;20482;-61
2023/03/07 00:47:03;;;;;;;18.90;11.40;;;4.10;22.30;;;;;;5023793;28;20525;-61
2023/03/07 00:49:30;;;;;;;19.90;11.47;;;4.10;22.30;;;;;;5015780;28;20526;-61
2023/03/07 00:51:57;;;;;;;19.17;10.90;;;4.10;22.30;;;;;;5022638;28;20466;-61
2023/03/07 00:54:23;;;;;;;19.20;11.23;;;4.10;22.40;;;;;;5023294;28;20466;-61
2023/03/07 00:56:50;;;;;;;20.13;11.50;;;4.10;22.30;;;;;;5024438;28;20480;-61
2023/03/07 00:59:17;;;;;;;21.00;11.93;;;4.10;22.30;;;;;;5022159;28;20959;-62
2023/03/07 01:01:44;;;;;;;23.50;11.73;;;4.10;22.30;;;;;;5023039;28;20479;-61
2023/03/07 01:04:12;;;;;;;27.87;11.60;;;4.10;22.30;;;;;;5017368;28;20471;-61
2023/03/07 01:06:38;;;;;;;16.70;10.23;;;4.10;22.30;;;;;;5023401;28;20517;-60
2023/03/07 01:09:07;;;;;;;18.00;11.13;;;4.00;22.20;;;;;;5020184;28;20596;-60
2023/03/07 01:11:35;;;;;;;20.80;10.77;;;4.10;22.30;;;;;;5023119;28;20841;-61
2023/03/07 01:14:03;;;;;;;19.00;10.70;;;4.10;22.30;;;;;;5018722;28;20473;-61
2023/03/07 01:16:32;;;;;;;19.97;10.50;;;4.00;22.20;;;;;;5026187;28;20487;-60
2023/03/07 01:19:01;;;;;;;22.53;11.90;;;4.00;22.20;;;;;;5020880;28;20461;-62
2023/03/07 01:21:31;;;;;;;18.80;10.97;;;4.10;22.30;;;;;;5026922;28;20458;-63
2023/03/07 01:23:58;;;;;;;17.63;9.40;;;4.00;22.30;;;;;;5022205;28;20459;-61
2023/03/07 01:26:27;;;;;;;17.60;10.67;;;4.00;22.40;;;;;;5018100;28;20501;-61
2023/03/07 01:28:55;;;;;;;19.73;10.90;;;4.00;22.50;;;;;;5021753;28;20470;-61
2023/03/07 01:31:23;;;;;;;16.87;10.50;;;4.00;22.60;;;;;;5025541;28;20489;-62
2023/03/07 01:33:52;;;;;;;19.50;9.57;;;4.00;22.70;;;;;;5030062;28;20465;-61
2023/03/07 01:36:21;;;;;;;19.00;11.20;;;4.00;22.80;;;;;;5026465;28;20459;-61
2023/03/07 01:38:50;;;;;;;19.30;9.73;;;4.00;22.80;;;;;;5021606;28;20550;-61
2023/03/07 01:41:17;;;;;;;16.53;9.90;;;3.90;22.90;;;;;;5019796;28;20466;-61
2023/03/07 01:43:44;;;;;;;15.50;9.40;;;3.90;22.90;;;;;;5018401;28;20471;-61
2023/03/07 01:46:34;;;;;;;17.63;10.07;;;3.90;22.90;;;;;;5014680;28;20468;-60
2023/03/07 01:49:06;;;;;;;20.20;11.50;;;3.90;22.90;;;;;;5023552;28;20467;-61
2023/03/07 01:51:34;;;;;;;19.13;10.00;;;3.90;22.80;;;;;;5023704;28;20455;-60
2023/03/07 01:54:03;;;;;;;15.60;9.73;;;3.80;22.70;;;;;;5027428;28;20463;-61
2023/03/07 01:56:30;;;;;;;16.63;10.53;;;3.80;22.70;;;;;;5027442;28;20470;-61
2023/03/07 01:58:57;;;;;;;15.63;9.87;;;3.80;22.70;;;;;;5024301;28;20487;-61
2023/03/07 02:01:27;;;;;;;18.03;10.67;;;3.80;22.80;;;;;;5022138;28;20478;-60
2023/03/07 02:03:57;;;;;;;16.90;9.77;;;3.70;22.70;;;;;;5024037;28;20458;-63
2023/03/07 02:06:27;;;;;;;15.33;9.13;;;3.70;22.70;;;;;;5018597;28;20480;-60
2023/03/07 02:08:55;;;;;;;15.27;8.47;;;3.70;22.60;;;;;;5021511;28;21148;-61
2023/03/07 02:11:24;;;;;;;17.93;10.10;;;3.70;22.50;;;;;;5024701;28;20491;-60
2023/03/07 02:13:51;;;;;;;17.43;9.70;;;3.60;22.50;;;;;;5021329;28;20470;-61
2023/03/07 02:16:17;;;;;;;18.00;9.50;;;3.70;22.60;;;;;;5024048;28;20456;-62
2023/03/07 02:18:47;;;;;;;14.60;9.00;;;3.60;23.20;;;;;;5026055;28;20834;-62
2023/03/07 02:21:22;;;;;;;14.67;8.83;;;3.60;22.60;;;;;;5022420;28;20459;-62
2023/03/07 02:23:56;;;;;;;16.80;8.80;;;3.60;22.80;;;;;;5022539;28;20465;-62
2023/03/07 02:26:38;;;;;;;17.30;9.50;;;3.60;22.80;;;;;;5016632;28;20463;-62
2023/03/07 02:29:04;;;;;;;15.00;9.43;;;3.60;23.00;;;;;;5022471;28;21094;-62
2023/03/07 02:31:31;;;;;;;15.83;8.90;;;3.60;23.00;;;;;;5018283;28;20479;-63
2023/03/07 02:33:58;;;;;;;14.70;8.70;;;3.50;23.10;;;;;;5020778;28;20468;-61
2023/03/07 02:36:30;;;;;;;17.43;9.17;;;3.60;23.10;;;;;;5023934;28;20546;-61
2023/03/07 02:38:59;;;;;;;17.53;9.97;;;3.60;23.10;;;;;;5018152;28;20464;-62
2023/03/07 02:41:30;;;;;;;16.17;9.07;;;3.60;23.10;;;;;;5021092;28;20455;-63
2023/03/07 02:43:59;;;;;;;20.60;9.73;;;3.60;23.20;;;;;;5018489;28;20469;-61
2023/03/07 02:46:25;;;;;;;16.33;9.27;;;3.60;23.20;;;;;;5018139;28;20452;-62
2023/03/07 02:48:52;;;;;;;15.30;8.40;;;3.60;23.30;;;;;;5021970;28;20467;-62
2023/03/07 02:51:19;;;;;;;14.73;8.73;;;3.50;23.30;;;;;;5017911;28;20452;-62
2023/03/07 02:53:45;;;;;;;17.57;9.33;;;3.60;23.30;;;;;;5025026;28;20455;-62
2023/03/07 02:56:13;;;;;;;17.03;10.03;;;3.60;23.10;;;;;;5020178;28;20939;-61
2023/03/07 02:58:40;;;;;;;17.17;10.07;;;3.60;23.10;;;;;;5023345;28;20463;-61
2023/03/07 03:01:08;;;;;;;17.70;9.00;;;3.60;23.10;;;;;;5018179;28;20998;-63
2023/03/07 03:03:35;;;;;;;13.87;9.13;;;3.50;23.10;;;;;;5017493;28;20464;-60
2023/03/07 03:06:02;;;;;;;15.40;8.13;;;3.50;23.10;;;;;;5023384;28;20467;-60
2023/03/07 03:08:29;;;;;;;15.30;8.53;;;3.50;23.10;;;;;;5018108;28;20479;-61
2023/03/07 03:10:56;;;;;;;13.97;8.30;;;3.50;23.00;;;;;;5017399;28;20536;-60
2023/03/07 03:13:23;;;;;;;16.13;8.87;;;3.50;22.90;;;;;;5014860;28;21015;-62
2023/03/07 03:15:54;;;;;;;14.87;8.23;;;3.50;22.90;;;;;;5022029;28;20474;-61
2023/03/07 03:18:22;;;;;;;15.97;8.70;;;3.50;22.90;;;;;;5025037;28;21221;-61
2023/03/07 03:20:49;;;;;;;13.20;7.80;;;3.50;22.80;;;;;;5022103;28;20538;-61
2023/03/07 03:23:16;;;;;;;16.70;9.37;;;3.50;23.00;;;;;;5025206;28;20458;-61
2023/03/07 03:25:42;;;;;;;16.77;8.60;;;3.50;23.00;;;;;;5023194;28;20459;-61
2023/03/07 03:28:09;;;;;;;17.60;10.10;;;3.50;22.90;;;;;;5012299;28;20566;-62
2023/03/07 03:30:36;;;;;;;17.20;9.43;;;3.50;22.90;;;;;;5026641;28;21012;-60
2023/03/07 03:33:03;;;;;;;13.70;7.97;;;3.50;23.00;;;;;;5020727;28;20543;-61
2023/03/07 03:35:32;;;;;;;21.17;9.33;;;3.50;23.10;;;;;;5016345;28;20464;-59
2023/03/07 03:37:59;;;;;;;18.80;9.40;;;3.50;23.00;;;;;;5024126;28;20479;-62
2023/03/07 03:40:25;;;;;;;15.63;9.07;;;3.50;23.00;;;;;;5023771;28;20459;-61
2023/03/07 03:42:53;;;;;;;15.87;7.90;;;3.50;22.80;;;;;;5029022;28;20467;-61
2023/03/07 03:45:20;;;;;;;16.40;9.40;;;3.50;22.70;;;;;;5032230;28;20459;-65
2023/03/07 03:47:49;;;;;;;18.50;10.73;;;3.50;22.60;;;;;;5029514;28;20493;-60
2023/03/07 03:50:16;;;;;;;16.70;9.13;;;3.40;22.40;;;;;;5018643;28;20471;-60
2023/03/07 03:52:44;;;;;;;13.47;8.37;;;3.40;22.30;;;;;;5018463;28;20504;-62
2023/03/07 03:55:11;;;;;;;15.93;8.50;;;3.40;22.30;;;;;;5027814;28;20459;-60
2023/03/07 03:57:37;;;;;;;18.13;9.97;;;3.40;22.30;;;;;;5024677;28;20471;-60
2023/03/07 04:00:06;;;;;;;17.53;8.97;;;3.40;22.20;;;;;;5024496;28;20833;-61
2023/03/07 04:02:33;;;;;;;14.93;8.90;;;3.40;22.10;;;;;;5026356;28;20490;-60
2023/03/07 04:05:00;;;;;;;14.57;8.50;;;3.30;22.20;;;;;;5020570;28;20481;-60
2023/03/07 04:07:28;;;;;;;17.27;9.03;;;3.30;21.90;;;;;;5025110;28;20486;-61
2023/03/07 04:09:56;;;;;;;14.50;8.43;;;3.20;22.00;;;;;;5020971;28;20482;-60
2023/03/07 04:12:23;;;;;;;13.70;8.70;;;3.20;22.10;;;;;;5023041;28;20979;-61
2023/03/07 04:14:49;;;;;;;18.07;9.33;;;3.20;22.10;;;;;;5018818;28;20486;-61
2023/03/07 04:17:16;;;;;;;18.57;9.37;;;3.10;22.10;;;;;;5015693;28;20475;-61
2023/03/07 04:19:43;;;;;;;16.70;9.47;;;3.10;22.00;;;;;;5019576;28;20459;-61
2023/03/07 04:22:09;;;;;;;16.77;8.20;;;3.10;22.20;;;;;;5013400;28;21003;-61
2023/03/07 04:24:36;;;;;;;14.97;8.63;;;3.10;22.20;;;;;;5010566;28;20470;-60
2023/03/07 04:27:05;;;;;;;16.77;10.13;;;3.10;22.30;;;;;;5015425;28;20495;-61
2023/03/07 04:29:32;;;;;;;17.00;8.93;;;3.10;22.40;;;;;;5015411;28;20554;-61
2023/03/07 04:31:58;;;;;;;18.27;9.43;;;3.00;22.40;;;;;;5007453;28;21040;-62
2023/03/07 04:34:25;;;;;;;18.20;9.90;;;3.00;22.60;;;;;;5011677;28;20466;-61
2023/03/07 04:36:52;;;;;;;17.23;8.80;;;3.10;22.70;;;;;;5013168;28;20497;-62
2023/03/07 04:39:18;;;;;;;17.23;8.70;;;3.10;22.90;;;;;;5017782;28;20466;-61
2023/03/07 04:41:45;;;;;;;17.60;9.60;;;3.10;22.90;;;;;;5017700;28;20466;-62
2023/03/07 04:44:14;;;;;;;15.40;8.80;;;3.10;22.90;;;;;;5027866;28;20458;-62
2023/03/07 04:46:41;;;;;;;17.00;9.33;;;3.10;22.80;;;;;;5022271;28;20902;-61
2023/03/07 04:49:08;;;;;;;16.90;10.33;;;3.10;22.80;;;;;;5019634;28;20482;-61
2023/03/07 04:51:34;;;;;;;14.00;9.27;;;3.10;23.10;;;;;;5017670;28;20470;-61
2023/03/07 04:54:01;;;;;;;19.57;10.00;;;3.10;22.90;;;;;;5021279;28;20463;-62
2023/03/07 04:56:28;;;;;;;18.53;10.37;;;3.10;22.70;;;;;;5020937;28;21025;-62
2023/03/07 04:58:54;;;;;;;15.10;8.30;;;3.10;22.80;;;;;;5018393;28;20462;-62
2023/03/07 05:01:22;;;;;;;15.50;8.60;;;3.00;22.70;;;;;;5018517;28;20496;-60
2023/03/07 05:03:49;;;;;;;20.53;10.27;;;3.00;22.80;;;;;;5019855;28;20470;-61
2023/03/07 05:06:16;;;;;;;16.90;9.17;;;3.00;22.90;;;;;;5017229;28;20485;-61
2023/03/07 05:08:44;;;;;;;17.27;9.27;;;3.00;22.90;;;;;;5016631;28;21022;-61
2023/03/07 05:11:10;;;;;;;15.90;8.90;;;3.00;23.00;;;;;;5017041;28;20563;-62
2023/03/07 05:13:37;;;;;;;17.13;9.23;;;3.00;23.00;;;;;;5018095;28;20475;-61
2023/03/07 05:16:04;;;;;;;17.00;9.07;;;3.00;23.00;;;;;;5020515;28;20466;-61
2023/03/07 05:18:32;;;;;;;17.80;9.73;;;3.00;23.00;;;;;;5021248;28;20487;-63
2023/03/07 05:20:59;;;;;;;19.50;10.43;;;3.00;23.10;;;;;;5023101;28;20454;-64
2023/03/07 05:23:26;;;;;;;15.90;10.13;;;3.00;23.40;;;;;;5026612;28;20459;-73
2023/03/07 05:25:52;;;;;;;19.43;9.50;;;3.00;23.60;;;;;;5026858;28;20471;-60
2023/03/07 05:28:19;;;;;;;15.47;8.50;;;3.10;23.90;;;;;;5023730;28;20487;-60
2023/03/07 05:30:47;;;;;;;16.93;9.17;;;3.10;23.50;;;;;;5017521;28;20474;-60
2023/03/07 05:33:14;;;;;;;14.47;7.90;;;3.10;23.10;;;;;;5022867;28;20462;-60
2023/03/07 05:35:43;;;;;;;17.47;10.33;;;3.10;22.70;;;;;;5028175;28;20527;-63
2023/03/07 05:38:10;;;;;;;15.10;8.80;;;3.10;22.70;;;;;;5020134;28;20479;-62
2023/03/07 05:40:36;;;;;;;16.73;8.90;;;3.10;22.60;;;;;;5025036;28;20998;-60
2023/03/07 05:43:03;;;;;;;16.93;9.20;;;3.10;22.60;;;;;;5029475;28;20455;-62
2023/03/07 05:45:30;;;;;;;15.20;9.17;;;3.10;22.60;;;;;;5019585;28;20463;-61
2023/03/07 05:47:57;;;;;;;14.17;8.70;;;3.10;22.60;;;;;;5014133;28;21006;-62
2023/03/07 05:50:23;;;;;;;17.40;9.30;;;3.10;22.50;;;;;;5025403;28;20478;-61
2023/03/07 05:52:52;;;;;;;18.30;10.57;;;3.20;22.40;;;;;;5019485;28;20954;-62
2023/03/07 05:55:18;;;;;;;18.00;10.03;;;3.20;22.30;;;;;;5016277;28;20526;-61
2023/03/07 05:57:45;;;;;;;14.10;7.53;;;3.20;22.20;;;;;;5025019;28;20490;-61
2023/03/07 06:00:14;;;;;;;15.73;8.07;;;3.20;22.00;;;;;;5017962;28;20465;-61
2023/03/07 06:02:41;;;;;;;15.37;8.50;;;3.20;22.10;;;;;;5020807;28;20467;-61
2023/03/07 06:05:09;;;;;;;16.50;8.23;;;3.20;22.10;;;;;;5024440;28;20853;-62
2023/03/07 06:07:35;;;;;;;16.50;8.90;;;3.20;21.90;;;;;;5026683;28;20506;-61
2023/03/07 06:10:04;;;;;;;16.67;9.80;;;3.20;22.00;;;;;;5023639;28;20470;-61
2023/03/07 06:12:30;;;;;;;16.13;8.97;;;3.30;22.10;;;;;;5021598;28;20460;-60
2023/03/07 06:14:57;;;;;;;18.07;8.27;;;3.30;22.10;;;;;;5019887;28;20476;-62
2023/03/07 06:17:24;;;;;;;14.43;8.20;;;3.30;22.00;;;;;;5017759;28;20479;-60
2023/03/07 06:19:51;;;;;;;16.80;10.33;;;3.30;22.10;;;;;;5021521;28;20459;-60
2023/03/07 06:22:17;;;;;;;14.53;8.53;;;3.30;21.90;;;;;;5017169;28;20960;-61
2023/03/07 06:24:44;;;;;;;19.43;11.20;;;3.30;22.10;;;;;;5026209;28;20466;-60
2023/03/07 06:27:12;;;;;;;14.83;8.27;;;3.40;21.80;;;;;;5021186;28;20479;-61
2023/03/07 06:29:39;;;;;;;15.37;9.43;;;3.40;21.80;;;;;;5019876;28;20494;-61
2023/03/07 06:32:06;;;;;;;17.27;9.80;;;3.40;21.70;;;;;;5026943;28;20475;-61
2023/03/07 06:34:33;;;;;;;17.07;9.53;;;3.40;21.80;;;;;;5027934;28;20465;-62
2023/03/07 06:36:59;;;;;;;15.37;8.07;;;3.50;22.00;;;;;;5027998;28;20482;-61
2023/03/07 06:39:26;;;;;;;15.07;9.20;;;3.50;21.90;;;;;;5021043;28;20832;-62
2023/03/07 06:41:53;;;;;;;14.10;8.93;;;3.50;21.80;;;;;;5023436;28;20458;-61
2023/03/07 06:44:21;;;;;;;16.47;8.93;;;3.50;21.70;;;;;;5025238;28;20973;-62
2023/03/07 06:46:48;;;;;;;16.73;9.17;;;3.60;21.60;;;;;;5024066;28;20875;-60
2023/03/07 06:49:15;;;;;;;18.93;8.80;;;3.60;21.60;;;;;;5027706;28;20487;-61
2023/03/07 06:51:42;;;;;;;17.40;8.97;;;3.60;21.50;;;;;;5022153;28;20459;-61
2023/03/07 06:54:08;;;;;;;15.07;8.70;;;3.70;21.20;;;;;;5025196;28;20460;-61
2023/03/07 06:56:35;;;;;;;25.57;9.33;;;3.70;21.10;;;;;;5027789;28;20483;-62
2023/03/07 06:59:02;;;;;;;17.10;9.03;;;3.80;20.80;;;;;;5026082;28;20848;-61
2023/03/07 07:01:30;;;;;;;15.90;9.47;;;3.80;20.60;;;;;;5027336;28;20483;-61
2023/03/07 07:03:57;;;;;;;15.87;9.17;;;3.90;20.60;;;;;;5026817;28;20470;-61
2023/03/07 07:06:24;;;;;;;16.40;9.50;;;3.90;20.40;;;;;;5023037;28;20831;-61
2023/03/07 07:08:55;;;;;;;15.40;9.07;;;4.00;20.20;;;;;;5026537;28;20479;-61
2023/03/07 07:11:22;;;;;;;18.20;9.90;;;4.00;20.10;;;;;;5025793;28;20544;-61
2023/03/07 07:13:49;;;;;;;14.93;8.03;;;4.10;20.20;;;;;;5020212;28;21142;-61
2023/03/07 07:16:17;;;;;;;18.83;10.00;;;4.20;19.80;;;;;;5023867;28;20462;-61
2023/03/07 07:18:45;;;;;;;18.27;9.67;;;4.40;19.50;;;;;;5021969;28;20458;-61
2023/03/07 07:21:12;;;;;;;16.70;10.57;;;4.50;19.30;;;;;;5023695;28;20466;-60
2023/03/07 07:23:39;;;;;;;16.30;8.80;;;4.60;19.20;;;;;;5016782;28;20971;-64
2023/03/07 07:26:06;;;;;;;13.63;8.67;;;4.80;18.80;;;;;;5027198;28;20456;-62
2023/03/07 07:28:32;;;;;;;24.63;9.87;;;4.90;18.70;;;;;;5019714;28;20483;-61
2023/03/07 07:30:59;;;;;;;18.13;8.87;;;5.10;18.60;;;;;;5023086;28;20471;-60
2023/03/07 07:33:26;;;;;;;15.80;9.00;;;5.30;17.90;;;;;;5026623;28;20463;-61
2023/03/07 07:35:54;;;;;;;20.80;9.63;;;5.60;17.90;;;;;;5024772;28;20834;-61
2023/03/07 07:38:21;;;;;;;17.30;9.20;;;6.30;16.70;;;;;;5019138;28;20487;-61
2023/03/07 07:40:48;;;;;;;14.73;8.23;;;6.90;15.60;;;;;;5027768;28;20455;-61
2023/03/07 07:43:16;;;;;;;16.27;8.97;;;7.60;14.30;;;;;;5027380;28;20459;-61
2023/03/07 07:45:43;;;;;;;16.40;9.10;;;8.80;12.60;;;;;;5021531;28;20451;-61
2023/03/07 07:48:09;;;;;;;16.53;10.50;;;10.30;9.90;;;;;;5027043;28;20509;-61
2023/03/07 07:50:36;;;;;;;15.73;9.63;;;11.70;7.70;;;;;;5022467;28;20470;-61
2023/03/07 07:53:04;;;;;;;16.77;9.57;;;12.80;5.40;;;;;;5017238;28;20468;-64
2023/03/07 07:55:31;;;;;;;16.20;10.37;;;13.60;3.50;;;;;;5021792;28;20467;-61
2023/03/07 07:57:58;;;;;;;20.70;9.03;;;14.60;1.50;;;;;;5028047;28;20500;-61
2023/03/07 08:00:25;;;;;;;14.23;8.87;;;15.40;1.00;;;;;;5025915;28;20462;-63
2023/03/07 08:02:51;;;;;;;15.83;8.77;;;16.30;1.00;;;;;;5021740;28;21939;-63
2023/03/07 08:05:20;;;;;;;14.77;9.53;;;17.10;1.00;;;;;;5023340;28;20464;-64
2023/03/07 08:07:46;;;;;;;14.07;9.67;;;18.10;1.00;;;;;;5023177;28;20617;-62
2023/03/07 08:10:15;;;;;;;13.37;8.87;;;19.10;1.00;;;;;;5026263;28;20487;-61
2023/03/07 08:12:42;;;;;;;12.73;8.63;;;19.90;1.00;;;;;;5021042;28;20526;-63
2023/03/07 08:15:10;;;;;;;13.17;9.53;;;20.50;1.00;;;;;;5020420;28;20779;-62
2023/03/07 08:17:37;;;;;;;13.33;9.80;;;21.00;1.00;;;;;;5024825;28;20478;-62
2023/03/07 08:20:08;;;;;;;13.97;9.33;;;21.30;1.00;;;;;;5024960;28;20466;-61
2023/03/07 08:22:34;;;;;;;11.40;8.47;;;21.80;1.00;;;;;;5022079;28;20538;-61
2023/03/07 08:25:01;;;;;;;14.10;9.40;;;22.30;1.00;;;;;;5020895;28;20455;-61
2023/03/07 08:27:29;;;;;;;12.57;8.87;;;22.80;1.00;;;;;;5022776;28;20475;-62
2023/03/07 08:29:56;;;;;;;13.30;9.10;;;23.10;1.00;;;;;;5013180;28;20478;-61
2023/03/07 08:32:23;;;;;;;14.13;9.20;;;23.60;1.00;;;;;;5023781;28;20483;-63
2023/03/07 08:34:50;;;;;;;15.50;11.63;;;24.20;1.00;;;;;;5019327;28;20828;-62
2023/03/07 08:37:16;;;;;;;12.57;8.57;;;24.90;1.00;;;;;;5020797;28;20483;-62
2023/03/07 08:39:43;;;;;;;12.50;9.60;;;25.40;1.00;;;;;;5026400;28;20973;-61
2023/03/07 08:42:10;;;;;;;12.10;9.57;;;25.90;1.00;;;;;;5022073;28;20478;-61
2023/03/07 08:44:38;;;;;;;14.77;9.43;;;26.40;1.00;;;;;;5019462;28;20468;-61
2023/03/07 08:47:05;;;;;;;12.63;10.17;;;26.10;1.00;;;;;;5023270;28;20483;-61
2023/03/07 08:49:31;;;;;;;12.13;8.93;;;25.40;1.00;;;;;;5026319;28;20498;-61
2023/03/07 08:51:58;;;;;;;12.70;9.63;;;25.20;1.00;;;;;;5022194;28;20841;-61
2023/03/07 08:54:25;;;;;;;12.53;8.73;;;25.60;1.00;;;;;;5021609;28;20470;-61
2023/03/07 08:56:51;;;;;;;13.43;8.63;;;26.10;1.00;;;;;;5020795;28;20494;-61
2023/03/07 08:59:18;;;;;;;11.53;8.57;;;26.50;1.00;;;;;;5026170;28;20458;-62
2023/03/07 09:01:46;;;;;;;12.53;8.27;;;26.60;1.00;;;;;;5021366;28;21179;-61
2023/03/07 09:04:13;;;;;;;12.13;9.13;;;26.90;1.00;;;;;;5023318;28;20455;-62
2023/03/07 09:06:40;;;;;;;11.93;9.10;;;27.00;1.00;;;;;;5018413;28;20491;-61
2023/03/07 09:09:06;;;;;;;12.37;8.90;;;26.20;1.00;;;;;;5017289;28;20949;-62
2023/03/07 09:11:33;;;;;;;10.80;8.40;;;25.00;1.00;;;;;;5023098;28;20470;-61
2023/03/07 09:14:00;;;;;;;14.37;9.33;;;24.10;1.00;;;;;;5023328;28;20874;-61
2023/03/07 09:16:26;;;;;;;12.93;9.87;;;22.90;1.00;;;;;;5021806;28;20459;-61
2023/03/07 09:18:54;;;;;;;14.70;9.47;;;22.20;1.00;;;;;;5025210;28;20839;-61
2023/03/07 09:21:21;;;;;;;14.40;9.73;;;20.90;1.00;;;;;;5023819;28;20459;-62
2023/03/07 09:23:48;;;;;;;14.10;9.90;;;19.50;1.00;;;;;;5025075;28;20857;-61
2023/03/07 09:26:14;;;;;;;13.40;10.00;;;18.50;1.00;;;;;;5025170;28;20967;-61
2023/03/07 09:28:41;;;;;;;15.10;9.37;;;17.60;1.00;;;;;;5029169;28;20454;-61
2023/03/07 09:31:09;;;;;;;12.70;9.07;;;16.90;1.00;;;;;;5027189;28;20501;-61
2023/03/07 09:33:36;;;;;;;14.90;8.77;;;16.00;1.00;;;;;;5026873;28;20459;-63
2023/03/07 09:36:06;;;;;;;15.40;10.10;;;15.30;1.00;;;;;;5022476;28;20482;-63
2023/03/07 09:38:33;;;;;;;16.90;10.07;;;14.70;1.00;;;;;;5028439;28;20493;-61
2023/03/07 09:41:07;;;;;;;15.50;8.97;;;14.30;1.00;;;;;;5030249;28;20466;-60
2023/03/07 09:43:43;;;;;;;13.40;8.80;;;14.10;1.00;;;;;;5028122;28;20463;-62
2023/03/07 09:46:13;;;;;;;12.20;7.97;;;13.70;1.00;;;;;;5023287;28;20459;-61
2023/03/07 09:49:15;;;;;;;12.50;8.30;;;13.60;1.00;;;;;;5024117;28;20458;-62
2023/03/07 09:51:45;;;;;;;12.17;7.13;;;13.40;1.00;;;;;;5027673;28;20450;-62
2023/03/07 09:54:14;;;;;;;15.33;9.07;;;13.30;1.00;;;;;;5030597;28;20493;-60
2023/03/07 09:56:45;;;;;;;13.37;8.20;;;13.40;1.00;;;;;;5022825;28;20479;-60
2023/03/07 09:59:21;;;;;;;12.00;7.57;;;13.90;1.00;;;;;;5025687;28;20764;-60
2023/03/07 10:01:51;;;;;;;16.00;8.63;;;14.70;1.00;;;;;;5038827;28;20575;-60
2023/03/07 10:04:25;;;;;;;14.70;8.83;;;14.70;1.00;;;;;;5042564;28;20450;-62
2023/03/07 10:06:57;;;;;;;13.33;7.73;;;14.30;1.00;;;;;;5038739;28;20716;-62
2023/03/07 10:09:25;;;;;;;12.10;6.90;;;14.10;1.00;;;;;;5043819;28;20475;-61
2023/03/07 10:12:23;;;;;;;11.40;7.00;;;14.50;1.00;;;;;;5031701;28;20459;-66
2023/03/07 10:15:05;;;;;;;11.30;7.40;;;15.10;1.00;;;;;;5024525;28;20456;-61
2023/03/07 10:17:54;;;;;;;12.20;8.10;;;15.70;1.00;;;;;;5023740;28;20509;-62
2023/03/07 10:20:25;;;;;;;10.00;6.43;;;15.70;1.00;;;;;;5037938;28;20455;-62
2023/03/07 10:23:01;;;;;;;11.00;7.03;;;16.50;1.00;;;;;;5036730;28;20466;-61
2023/03/07 10:25:31;;;;;;;11.60;7.63;;;16.10;1.00;;;;;;5027376;28;21034;-62
2023/03/07 10:28:01;;;;;;;11.03;7.30;;;15.30;1.00;;;;;;5028516;28;20482;-61
2023/03/07 10:30:31;;;;;;;11.73;7.80;;;14.60;1.00;;;;;;5026948;28;21014;-62
2023/03/07 10:33:00;;;;;;;12.77;7.30;;;14.20;1.00;;;;;;5031550;28;20841;-61
2023/03/07 10:35:38;;;;;;;12.20;7.23;;;14.00;1.00;;;;;;5022622;28;20567;-61
2023/03/07 10:38:14;;;;;;;11.30;7.60;;;14.40;1.00;;;;;;5020931;28;20479;-63
2023/03/07 10:40:47;;;;;;;12.90;8.53;;;14.30;1.00;;;;;;5028145;28;20463;-62
2023/03/07 10:43:20;;;;;;;11.13;7.00;;;14.60;1.00;;;;;;5026089;28;20492;-61
2023/03/07 10:45:47;;;;;;;11.20;6.93;;;14.70;1.00;;;;;;5028210;28;20463;-61
2023/03/07 10:48:18;;;;;;;13.67;7.50;;;14.10;1.00;;;;;;5025468;28;20474;-62
2023/03/07 10:50:51;;;;;;;11.63;7.73;;;13.70;1.00;;;;;;5026017;28;20483;-63
2023/03/07 10:53:26;;;;;;;11.43;7.27;;;14.40;1.00;;;;;;5024251;28;20775;-61
2023/03/07 10:56:07;;;;;;;12.77;7.53;;;15.60;1.00;;;;;;5028206;28;20466;-61
2023/03/07 10:58:34;;;;;;;11.20;6.40;;;15.60;1.00;;;;;;5020759;28;20463;-61
2023/03/07 11:01:13;;;;;;;13.60;8.60;;;16.70;1.00;;;;;;5020941;28;20995;-61
2023/03/07 11:03:43;;;;;;;12.30;8.07;;;16.70;1.00;;;;;;5023647;28;20463;-61
2023/03/07 11:06:26;;;;;;;12.60;7.87;;;17.40;1.00;;;;;;5030010;28;20463;-61
2023/03/07 11:08:55;;;;;;;10.90;7.10;;;18.00;1.00;;;;;;5020850;28;20466;-61
2023/03/07 11:11:26;;;;;;;10.93;7.07;;;18.20;1.00;;;;;;5019356;28;20460;-62
2023/03/07 11:14:09;;;;;;;11.40;6.57;;;18.10;1.00;;;;;;5015889;28;20470;-62
2023/03/07 11:16:41;;;;;;;12.03;8.63;;;17.20;1.00;;;;;;5025688;28;20479;-62
2023/03/07 11:19:28;;;;;;;12.43;8.10;;;17.00;1.00;;;;;;5018260;28;21054;-63
2023/03/07 11:21:57;;;;;;;13.00;8.83;;;16.70;1.00;;;;;;5023021;28;20467;-61
2023/03/07 11:24:27;;;;;;;12.70;9.10;;;16.40;1.00;;;;;;5025254;28;20456;-62
2023/03/07 11:26:55;;;;;;;11.70;8.00;;;16.40;1.00;;;;;;5026634;28;20501;-62
2023/03/07 11:29:22;;;;;;;13.60;8.03;;;16.40;1.00;;;;;;5023802;28;20482;-62
2023/03/07 11:31:58;;;;;;;13.03;8.00;;;16.30;1.00;;;;;;5022820;28;20478;-61
2023/03/07 11:34:32;;;;;;;13.20;9.03;;;15.90;1.00;;;;;;5016929;28;20888;-62
2023/03/07 11:37:13;;;;;;;11.93;8.43;;;15.60;1.00;;;;;;5021576;28;20487;-61
2023/03/07 11:39:48;;;;;;;13.80;8.80;;;15.30;1.00;;;;;;5016590;28;20463;-61
2023/03/07 11:42:18;;;;;;;14.10;8.40;;;14.90;1.00;;;;;;5021739;28;20946;-62
2023/03/07 11:44:52;;;;;;;11.13;7.57;;;14.60;1.00;;;;;;5017445;28;20768;-61
2023/03/07 11:47:32;;;;;;;12.50;8.00;;;14.20;1.00;;;;;;5021263;28;20876;-61
2023/03/07 11:50:21;;;;;;;12.90;8.60;;;14.00;1.00;;;;;;5017643;28;21933;-61
2023/03/07 11:53:23;;;;;;;10.67;7.03;;;13.60;1.00;;;;;;5019895;28;20704;-60
2023/03/07 11:56:03;;;;;;;12.97;7.70;;;13.40;1.00;;;;;;5017486;28;20462;-61
2023/03/07 11:59:10;;;;;;;13.77;9.00;;;13.20;1.00;;;;;;5018511;28;20488;-61
2023/03/07 12:01:42;;;;;;;13.67;8.50;;;12.80;1.00;;;;;;5008472;28;20483;-61
2023/03/07 12:04:45;;;;;;;14.50;9.10;;;12.60;1.00;;;;;;5022403;28;21137;-61
2023/03/07 12:07:29;;;;;;;15.53;8.70;;;12.40;1.00;;;;;;5020787;28;20486;-61
2023/03/07 12:10:02;;;;;;;12.23;8.07;;;12.10;1.00;;;;;;5023743;28;20478;-61
2023/03/07 12:12:47;;;;;;;16.30;8.33;;;11.90;1.00;;;;;;5019468;28;20467;-61
2023/03/07 12:15:27;;;;;;;15.47;8.47;;;11.80;1.20;;;;;;5026834;28;20459;-62
2023/03/07 12:18:16;;;;;;;13.97;8.90;;;11.70;1.50;;;;;;5019369;28;20483;-61
2023/03/07 12:20:51;;;;;;;11.87;8.20;;;11.70;2.40;;;;;;5018337;28;20466;-61
2023/03/07 12:23:22;;;;;;;13.20;8.20;;;11.90;2.90;;;;;;5022581;28;20470;-61
2023/03/07 12:25:52;;;;;;;12.17;8.43;;;12.40;1.90;;;;;;5019209;28;20466;-62
2023/03/07 12:28:24;;;;;;;13.50;8.47;;;12.80;1.90;;;;;;5021403;28;20879;-61
2023/03/07 12:31:00;;;;;;;14.77;9.17;;;13.20;1.00;;;;;;5024246;28;20483;-62
2023/03/07 12:33:36;;;;;;;13.53;7.93;;;13.30;1.00;;;;;;5018899;28;20466;-61
2023/03/07 12:36:07;;;;;;;13.53;8.30;;;13.30;1.00;;;;;;5024707;28;20469;-61
2023/03/07 12:38:39;;;;;;;12.50;7.23;;;13.30;1.00;;;;;;5025515;28;20462;-60
2023/03/07 12:41:19;;;;;;;15.67;10.27;;;13.10;1.20;;;;;;5017593;28;20465;-61
2023/03/07 12:43:51;;;;;;;13.53;7.93;;;12.90;1.00;;;;;;5015844;28;20500;-60
2023/03/07 12:46:27;;;;;;;15.10;8.50;;;12.60;1.00;;;;;;5018800;28;20459;-61
2023/03/07 12:48:58;;;;;;;14.00;8.40;;;12.50;1.40;;;;;;5022597;28;20464;-60
2023/03/07 12:51:31;;;;;;;13.70;8.67;;;12.40;1.70;;;;;;5017936;28;20491;-62
2023/03/07 12:54:00;;;;;;;13.80;7.87;;;12.20;1.10;;;;;;5025255;28;20462;-62
2023/03/07 12:56:33;;;;;;;14.03;8.90;;;12.10;1.00;;;;;;5021652;28;20550;-64